Vizconde de Eza — EAXB — position and weather

sailwx.info

Track history (hours):
 
Tides and Currents Weather Stations Pressure Air Temp Water Temp Dewpoint Dewpoint Depression Visibility Wind Speed Wind Dir Waves Ship Positions

Oceanographic research ship Vizconde de Eza (Spain)

Detailed information on ship capabilities available from University of Delaware's Ocean Information Center.

Last reported at 2018-Sep-20 20:23 UTC. Time now 2018-Sep-21 01:50 UTC.
Position N 53°26' W 010°46'.

Length 53 m; draft 5.8 m.

Type: Other ship. MMSI: 224582000.

Date/timePositionNaut miles runAvg speedWind from/ knotsBaromVisibWave heightAir tempDewpointWater temp
2018-Sep-20 20:23N 53°26' W 010°46'3 8.9
2018-Sep-20 20:02N 53°24' W 010°42'2 8.9
2018-Sep-20 19:49N 53°24' W 010°39'3 9.5
2018-Sep-20 19:27N 53°22' W 010°33'5 9.5
2018-Sep-20 18:56N 53°20' W 010°26'5 9.7
2018-Sep-20 18:28N 53°18' W 010°19'4 9.6
2018-Sep-20 18:02N 53°17' W 010°13'1 9.3
2018-Sep-20 17:56N 53°16' W 010°11'11 9.9
2018-Sep-20 16:48N 53°12' W 009°54'  
2018-Sep-17 07:49N 53°13' W 009°09'13 5.0
2018-Sep-17 05:09N 53°12' W 009°31'2 5.0
2018-Sep-17 04:49N 53°12' W 009°34'2 5.3
2018-Sep-17 04:22N 53°12' W 009°38'2 4.9
2018-Sep-17 04:02N 53°11' W 009°40'0 4.7
2018-Sep-17 04:01N 53°11' W 009°40'3 5.2
2018-Sep-17 03:30N 53°11' W 009°45'3 5.5
2018-Sep-17 03:03N 53°11' W 009°49'0 5.3
2018-Sep-17 03:00N 53°11' W 009°49'2 4.8
2018-Sep-17 02:30N 53°12' W 009°53'2 4.8
2018-Sep-17 02:03N 53°12' W 009°57'0 5.4
2018-Sep-17 01:59N 53°12' W 009°58'3 5.6
2018-Sep-17 01:30N 53°12' W 010°02'2 5.6
2018-Sep-17 01:04N 53°12' W 010°06'0 5.8
2018-Sep-17 01:00N 53°12' W 010°07'3 5.6
2018-Sep-17 00:29N 53°12' W 010°12'2 5.6
2018-Sep-17 00:02N 53°12' W 010°16'0 5.5
2018-Sep-17 00:00N 53°12' W 010°16'3 5.5
2018-Sep-16 23:29N 53°12' W 010°21'3 6.7
2018-Sep-16 23:03N 53°12' W 010°26'2 7.5
2018-Sep-16 22:46N 53°12' W 010°29'3 8.2
2018-Sep-16 22:27N 53°12' W 010°34'5 9.8
2018-Sep-16 21:57N 53°12' W 010°42'510.4
2018-Sep-16 21:30N 53°12' W 010°50'  
Track history (hours):
 
Tides and Currents Weather Stations Pressure Air Temp Water Temp Dewpoint Dewpoint Depression Visibility Wind Speed Wind Dir Waves Ship Positions

Oceanographic research ship Vizconde de Eza (Spain)

Detailed information on ship capabilities available from University of Delaware's Ocean Information Center.

Last reported at 2018-Sep-20 20:23 UTC. Time now 2018-Sep-21 01:50 UTC.
Position N 53°26' W 010°46'.

Length 53 m; draft 5.8 m.

Type: Other ship. MMSI: 224582000.

Date/timePositionNaut miles runAvg speedWind from/ knotsBaromVisibWave heightAir tempDewpointWater temp
2018-Sep-20 20:23N 53°26' W 010°46'3 8.9
2018-Sep-20 20:02N 53°24' W 010°42'2 8.9
2018-Sep-20 19:49N 53°24' W 010°39'3 9.5
2018-Sep-20 19:27N 53°22' W 010°33'5 9.5
2018-Sep-20 18:56N 53°20' W 010°26'5 9.7
2018-Sep-20 18:28N 53°18' W 010°19'4 9.6
2018-Sep-20 18:02N 53°17' W 010°13'1 9.3
2018-Sep-20 17:56N 53°16' W 010°11'11 9.9
2018-Sep-20 16:48N 53°12' W 009°54'  
2018-Sep-17 07:49N 53°13' W 009°09'13 5.0
2018-Sep-17 05:09N 53°12' W 009°31'2 5.0
2018-Sep-17 04:49N 53°12' W 009°34'2 5.3
2018-Sep-17 04:22N 53°12' W 009°38'2 4.9
2018-Sep-17 04:02N 53°11' W 009°40'0 4.7
2018-Sep-17 04:01N 53°11' W 009°40'3 5.2
2018-Sep-17 03:30N 53°11' W 009°45'3 5.5
2018-Sep-17 03:03N 53°11' W 009°49'0 5.3
2018-Sep-17 03:00N 53°11' W 009°49'2 4.8
2018-Sep-17 02:30N 53°12' W 009°53'2 4.8
2018-Sep-17 02:03N 53°12' W 009°57'0 5.4
2018-Sep-17 01:59N 53°12' W 009°58'3 5.6
2018-Sep-17 01:30N 53°12' W 010°02'2 5.6
2018-Sep-17 01:04N 53°12' W 010°06'0 5.8
2018-Sep-17 01:00N 53°12' W 010°07'3 5.6
2018-Sep-17 00:29N 53°12' W 010°12'2 5.6
2018-Sep-17 00:02N 53°12' W 010°16'0 5.5
2018-Sep-17 00:00N 53°12' W 010°16'3 5.5
2018-Sep-16 23:29N 53°12' W 010°21'3 6.7
2018-Sep-16 23:03N 53°12' W 010°26'2 7.5
2018-Sep-16 22:46N 53°12' W 010°29'3 8.2
2018-Sep-16 22:27N 53°12' W 010°34'5 9.8
2018-Sep-16 21:57N 53°12' W 010°42'510.4
2018-Sep-16 21:30N 53°12' W 010°50'  

Dump ship's entire track history